Time;durP1;ratioP1;P1;durP2;ratioP2;P2;SDS_P1;SDS_P2;PMS_P1;PMS_P2;Temp;Humidity;BMP_temperature;BMP_pressure;BME280_temperature;BME280_humidity;BME280_pressure;Samples;Min_cycle;Max_cycle;Signal;HPM_P1;HPM_P2
2022/12/12 02:00:59;;;;;;;23.90;8.50;;;;;;;;;;6222329;22;20190;-91
2022/12/12 02:04:06;;;;;;;23.43;8.47;;;;;;;;;;6282757;22;20145;-93
2022/12/12 02:10:34;;;;;;;24.17;8.80;;;;;;;;;;6282554;22;20189;-92
2022/12/12 02:13:40;;;;;;;26.73;9.83;;;;;;;;;;6278634;22;20200;-92
2022/12/12 02:17:13;;;;;;;22.47;8.63;;;;;;;;;;6279381;22;20659;-91
2022/12/12 02:20:34;;;;;;;25.57;9.70;;;;;;;;;;6278480;22;20165;-91
2022/12/12 02:23:55;;;;;;;25.47;9.67;;;;;;;;;;6280219;22;20181;-91
2022/12/12 02:27:15;;;;;;;29.33;10.77;;;;;;;;;;6278320;22;20149;-89
2022/12/12 02:30:22;;;;;;;24.47;9.67;;;;;;;;;;6278731;22;20178;-91
2022/12/12 02:33:36;;;;;;;26.13;9.13;;;;;;;;;;6279914;22;20177;-91
2022/12/12 02:36:44;;;;;;;27.47;9.63;;;;;;;;;;6281604;22;20154;-91
2022/12/12 04:31:14;;;;;;;15.83;7.03;;;;;;;;;;6229410;22;20211;-93
2022/12/12 04:34:22;;;;;;;19.63;8.73;;;;;;;;;;6281208;22;20221;-91
2022/12/12 04:37:29;;;;;;;24.03;7.73;;;;;;;;;;6283505;22;20227;-89
2022/12/12 04:40:36;;;;;;;22.43;8.17;;;;;;;;;;6284350;22;20178;-90
2022/12/12 04:43:43;;;;;;;19.87;8.70;;;;;;;;;;6281555;22;20205;-90
2022/12/12 04:46:52;;;;;;;24.33;9.67;;;;;;;;;;6266239;22;20146;-91
2022/12/12 04:49:59;;;;;;;18.37;8.03;;;;;;;;;;6281982;22;20162;-91
2022/12/12 04:53:08;;;;;;;24.30;9.47;;;;;;;;;;6265475;22;20177;-91
2022/12/12 04:56:14;;;;;;;24.70;9.00;;;;;;;;;;6283398;22;20145;-91
2022/12/12 04:59:20;;;;;;;23.13;8.33;;;;;;;;;;6280675;22;20258;-90
2022/12/12 05:02:34;;;;;;;22.67;8.23;;;;;;;;;;6281406;22;20166;-91
2022/12/12 05:05:44;;;;;;;25.40;9.20;;;;;;;;;;6262539;22;20196;-92
2022/12/12 05:08:52;;;;;;;20.20;8.90;;;;;;;;;;6280074;22;20151;-92
2022/12/12 05:11:59;;;;;;;23.63;8.47;;;;;;;;;;6263142;22;20194;-93
2022/12/12 05:15:04;;;;;;;23.50;9.07;;;;;;;;;;6280239;22;20146;-91
2022/12/12 05:18:11;;;;;;;23.10;8.77;;;;;;;;;;6280307;22;20162;-91
2022/12/12 05:21:18;;;;;;;19.83;9.20;;;;;;;;;;6281767;22;20174;-92
2022/12/12 05:24:23;;;;;;;23.83;9.90;;;;;;;;;;6263786;22;20146;-92
2022/12/12 05:27:28;;;;;;;25.37;9.57;;;;;;;;;;6265591;22;20169;-90
2022/12/12 05:30:34;;;;;;;19.37;9.23;;;;;;;;;;6281369;22;20202;-90
2022/12/12 05:33:39;;;;;;;23.67;9.87;;;;;;;;;;6281753;22;20211;-90
2022/12/12 05:36:47;;;;;;;25.80;10.20;;;;;;;;;;6282972;22;20146;-90
2022/12/12 05:39:53;;;;;;;22.07;9.37;;;;;;;;;;6265610;22;20175;-90
2022/12/12 05:42:59;;;;;;;26.43;10.27;;;;;;;;;;6265719;22;20201;-91
2022/12/12 05:46:06;;;;;;;24.27;9.80;;;;;;;;;;6264589;22;20171;-91
2022/12/12 05:49:11;;;;;;;23.97;9.80;;;;;;;;;;6264940;22;20154;-90
2022/12/12 05:52:18;;;;;;;23.97;10.87;;;;;;;;;;6283014;22;20210;-90
2022/12/12 05:55:23;;;;;;;25.73;10.37;;;;;;;;;;6264066;22;20501;-90
2022/12/12 05:58:30;;;;;;;27.53;11.20;;;;;;;;;;6267817;22;20237;-89
2022/12/12 06:01:38;;;;;;;25.53;10.33;;;;;;;;;;6265547;22;20167;-90
2022/12/12 06:05:03;;;;;;;28.23;10.67;;;;;;;;;;6266420;22;20147;-90
2022/12/12 06:08:09;;;;;;;25.87;10.57;;;;;;;;;;6266831;22;20158;-90
2022/12/12 06:11:15;;;;;;;26.23;10.13;;;;;;;;;;6265416;22;20154;-92
2022/12/12 06:14:21;;;;;;;28.83;12.03;;;;;;;;;;6267967;22;20150;-92
2022/12/12 06:17:27;;;;;;;26.50;10.13;;;;;;;;;;6266254;22;20242;-92
2022/12/12 06:20:32;;;;;;;31.23;11.53;;;;;;;;;;6268337;22;20166;-91
2022/12/12 06:23:40;;;;;;;28.00;10.77;;;;;;;;;;6268315;22;20171;-94
2022/12/12 10:46:16;;;;;;;18.97;8.23;;;;;;;;;;6233902;22;20219;-90
2022/12/12 10:49:23;;;;;;;18.37;7.20;;;;;;;;;;6262066;22;20225;-90
2022/12/12 10:52:29;;;;;;;26.40;9.40;;;;;;;;;;6283888;22;20182;-90
2022/12/12 10:55:38;;;;;;;23.50;8.53;;;;;;;;;;6259963;22;20189;-88
2022/12/12 10:58:44;;;;;;;20.17;7.93;;;;;;;;;;6263168;22;20197;-91
2022/12/12 11:01:58;;;;;;;19.87;8.07;;;;;;;;;;6281505;22;20186;-91
2022/12/12 11:05:08;;;;;;;20.10;8.27;;;;;;;;;;6281489;22;20166;-89
2022/12/12 11:08:20;;;;;;;20.97;8.03;;;;;;;;;;6261916;22;20345;-90
2022/12/12 11:11:26;;;;;;;21.30;7.73;;;;;;;;;;6279581;22;20169;-91
2022/12/12 11:14:33;;;;;;;20.93;7.90;;;;;;;;;;6260626;22;20186;-90
2022/12/12 11:17:46;;;;;;;17.07;7.33;;;;;;;;;;6262798;22;20162;-90
2022/12/12 11:20:52;;;;;;;18.73;7.70;;;;;;;;;;6261128;22;20170;-91
2022/12/12 11:23:58;;;;;;;16.83;7.40;;;;;;;;;;6278476;22;20265;-91
2022/12/12 11:27:14;;;;;;;17.90;7.17;;;;;;;;;;6280066;22;20170;-91
2022/12/12 11:30:23;;;;;;;21.27;7.20;;;;;;;;;;6262744;22;20163;-90
2022/12/12 11:33:32;;;;;;;18.93;7.20;;;;;;;;;;6264377;22;20194;-90
2022/12/12 11:36:39;;;;;;;19.53;7.40;;;;;;;;;;6284215;22;20203;-93
2022/12/12 11:39:46;;;;;;;17.67;7.60;;;;;;;;;;6279310;22;20655;-91
2022/12/12 11:42:52;;;;;;;15.63;6.63;;;;;;;;;;6263001;22;20158;-91
2022/12/12 11:46:02;;;;;;;14.30;6.43;;;;;;;;;;6262227;22;20202;-91
2022/12/12 11:49:18;;;;;;;18.17;6.70;;;;;;;;;;6282438;22;20158;-90
2022/12/12 11:52:24;;;;;;;16.60;6.90;;;;;;;;;;6260921;22;20225;-91
2022/12/12 11:55:36;;;;;;;15.80;6.37;;;;;;;;;;6277465;22;20158;-90
2022/12/12 11:58:47;;;;;;;14.73;5.27;;;;;;;;;;6260735;22;20590;-92
2022/12/12 12:01:56;;;;;;;15.60;5.87;;;;;;;;;;6280151;22;20154;-92
2022/12/12 12:05:11;;;;;;;12.23;5.33;;;;;;;;;;6263784;22;20174;-90
2022/12/12 12:08:25;;;;;;;13.07;5.83;;;;;;;;;;6260938;22;20163;-91
2022/12/12 12:11:34;;;;;;;18.13;6.80;;;;;;;;;;6265898;22;20163;-89
2022/12/12 12:14:46;;;;;;;18.87;7.07;;;;;;;;;;6264611;22;20267;-86
2022/12/12 12:18:06;;;;;;;16.07;6.23;;;;;;;;;;6280369;22;20230;-89
2022/12/12 12:21:21;;;;;;;14.47;6.07;;;;;;;;;;6261406;22;20183;-91
2022/12/12 12:24:40;;;;;;;14.03;6.07;;;;;;;;;;6263264;22;20158;-91
2022/12/12 12:27:48;;;;;;;14.87;6.70;;;;;;;;;;6280881;22;20540;-90
2022/12/12 12:30:58;;;;;;;13.97;5.97;;;;;;;;;;6280128;22;20290;-90
2022/12/12 12:34:08;;;;;;;13.63;5.53;;;;;;;;;;6279944;22;20198;-91
2022/12/12 12:37:22;;;;;;;13.53;4.93;;;;;;;;;;6262195;22;20151;-90
2022/12/12 12:40:37;;;;;;;19.77;6.23;;;;;;;;;;6264190;22;20163;-91
2022/12/12 12:43:52;;;;;;;12.97;6.07;;;;;;;;;;6264269;22;20181;-92
2022/12/12 12:47:01;;;;;;;15.23;6.23;;;;;;;;;;6266533;22;20197;-91
2022/12/12 12:50:14;;;;;;;13.70;5.13;;;;;;;;;;6265042;22;20166;-92
2022/12/12 12:53:34;;;;;;;16.00;5.90;;;;;;;;;;6283453;22;20197;-91
2022/12/12 12:56:45;;;;;;;12.57;4.43;;;;;;;;;;6262710;22;20214;-92
2022/12/12 12:59:51;;;;;;;12.87;5.47;;;;;;;;;;6263260;22;20174;-89
2022/12/12 13:03:01;;;;;;;13.30;5.27;;;;;;;;;;6281233;22;20191;-90
2022/12/12 13:09:36;;;;;;;15.73;6.00;;;;;;;;;;6264218;22;20166;-92
2022/12/12 13:12:45;;;;;;;17.30;6.30;;;;;;;;;;6282857;22;20235;-92
2022/12/12 13:15:53;;;;;;;14.63;7.67;;;;;;;;;;6280551;22;20282;-91
2022/12/12 13:19:02;;;;;;;12.53;5.73;;;;;;;;;;6264637;22;20201;-89
2022/12/12 13:22:11;;;;;;;15.13;6.67;;;;;;;;;;6281673;22;20226;-89
2022/12/12 13:25:23;;;;;;;18.73;7.40;;;;;;;;;;6280875;22;20210;-91
2022/12/12 13:28:33;;;;;;;20.13;6.97;;;;;;;;;;6281218;22;20166;-91
2022/12/12 13:31:43;;;;;;;51.43;17.10;;;;;;;;;;6262829;22;20162;-89
2022/12/12 13:34:56;;;;;;;24.90;8.73;;;;;;;;;;6263147;22;20159;-91
2022/12/12 13:38:02;;;;;;;17.93;7.47;;;;;;;;;;6283383;22;20194;-92
2022/12/12 13:41:08;;;;;;;19.43;8.33;;;;;;;;;;6280317;22;20170;-89
2022/12/12 13:44:29;;;;;;;18.63;7.10;;;;;;;;;;6280321;22;20606;-92
2022/12/12 13:47:55;;;;;;;18.97;7.03;;;;;;;;;;6262157;22;20154;-90
2022/12/12 13:51:19;;;;;;;17.83;6.97;;;;;;;;;;6281190;22;20166;-90
2022/12/12 13:54:47;;;;;;;20.23;7.37;;;;;;;;;;6282128;22;20197;-89
2022/12/12 13:58:06;;;;;;;23.80;8.23;;;;;;;;;;6262661;22;20185;-89
2022/12/12 14:01:36;;;;;;;30.13;12.13;;;;;;;;;;6281561;22;20166;-89
2022/12/12 14:04:43;;;;;;;20.43;7.63;;;;;;;;;;6264614;22;20179;-90
2022/12/12 14:07:51;;;;;;;19.20;8.20;;;;;;;;;;6285129;22;20162;-89
2022/12/12 14:11:02;;;;;;;25.27;9.13;;;;;;;;;;6279972;22;20160;-89
2022/12/12 14:14:09;;;;;;;20.37;8.93;;;;;;;;;;6279623;22;20178;-91
2022/12/12 14:17:20;;;;;;;22.30;8.30;;;;;;;;;;6280384;22;20166;-91
2022/12/12 14:20:27;;;;;;;26.47;9.90;;;;;;;;;;6265705;22;20373;-90
2022/12/12 14:23:35;;;;;;;25.93;9.10;;;;;;;;;;6263407;22;20201;-91
2022/12/12 14:26:50;;;;;;;26.37;10.27;;;;;;;;;;6262832;22;20162;-91
2022/12/12 14:29:56;;;;;;;23.73;9.80;;;;;;;;;;6266398;22;20166;-88
2022/12/12 14:33:05;;;;;;;25.17;9.20;;;;;;;;;;6281896;22;20657;-88
2022/12/12 14:36:21;;;;;;;22.83;8.70;;;;;;;;;;6264684;22;20154;-90
2022/12/12 14:39:35;;;;;;;68.93;21.77;;;;;;;;;;6282780;22;20146;-92
2022/12/12 14:43:00;;;;;;;153.03;41.33;;;;;;;;;;6265146;22;20154;-93
2022/12/12 14:46:06;;;;;;;87.40;27.53;;;;;;;;;;6264792;22;20194;-88
2022/12/12 14:49:14;;;;;;;24.30;9.27;;;;;;;;;;6268719;22;20151;-89
2022/12/12 14:52:22;;;;;;;17.30;8.03;;;;;;;;;;6284769;22;20151;-90
2022/12/12 14:55:28;;;;;;;19.63;8.47;;;;;;;;;;6282291;22;20198;-91
2022/12/12 15:01:58;;;;;;;20.43;7.40;;;;;;;;;;6285865;22;20443;-89
2022/12/12 16:35:27;;;;;;;35.63;13.23;;;;;;;;;;6215483;22;20249;-90
2022/12/12 16:38:42;;;;;;;35.13;12.90;;;;;;;;;;6265114;22;20162;-90
2022/12/12 16:45:08;;;;;;;31.73;11.93;;;;;;;;;;6263691;22;20242;-92
2022/12/12 16:48:15;;;;;;;31.70;12.30;;;;;;;;;;6265547;22;20166;-90
2022/12/12 16:51:25;;;;;;;27.80;11.43;;;;;;;;;;6262771;22;20171;-90
2022/12/12 16:54:31;;;;;;;28.97;11.03;;;;;;;;;;6260956;22;20198;-87
2022/12/12 16:57:36;;;;;;;28.40;11.07;;;;;;;;;;6262997;22;20174;-91
2022/12/12 17:00:41;;;;;;;30.17;10.93;;;;;;;;;;6261791;22;20183;-90
2022/12/12 17:03:50;;;;;;;26.63;11.27;;;;;;;;;;6266181;22;20226;-89
2022/12/12 17:07:01;;;;;;;27.20;10.87;;;;;;;;;;6266169;22;20209;-90
2022/12/12 17:10:07;;;;;;;30.10;11.47;;;;;;;;;;6264557;22;20177;-90
2022/12/12 17:13:16;;;;;;;34.27;12.80;;;;;;;;;;6262888;22;20629;-91
2022/12/12 17:16:21;;;;;;;31.83;12.33;;;;;;;;;;6266118;22;20216;-89
2022/12/12 17:19:27;;;;;;;31.20;11.60;;;;;;;;;;6263958;22;20167;-90
2022/12/12 17:22:35;;;;;;;28.30;10.90;;;;;;;;;;6264208;22;20166;-90
2022/12/12 17:25:41;;;;;;;36.97;12.93;;;;;;;;;;6263293;22;20171;-91
2022/12/12 22:56:13;;;;;;;34.60;12.57;;;;;;;;;;6211853;22;20219;-93
2022/12/12 22:59:18;;;;;;;36.40;11.50;;;;;;;;;;6265410;22;20163;-90
2022/12/12 23:06:28;;;;;;;28.03;10.53;;;;;;;;;;6264827;22;20170;-93
2022/12/12 23:09:36;;;;;;;32.67;10.77;;;;;;;;;;6262741;22;20645;-91
2022/12/12 23:12:43;;;;;;;34.60;12.67;;;;;;;;;;6262691;22;20214;-92
2022/12/12 23:15:49;;;;;;;35.87;12.53;;;;;;;;;;6264537;22;20151;-89
2022/12/12 23:18:55;;;;;;;28.63;10.90;;;;;;;;;;6263093;22;20163;-90
2022/12/12 23:22:01;;;;;;;29.87;11.50;;;;;;;;;;6265266;22;20151;-91
2022/12/12 23:25:07;;;;;;;28.57;10.93;;;;;;;;;;6262185;22;20182;-89
2022/12/12 23:28:14;;;;;;;31.93;11.83;;;;;;;;;;6262131;22;20151;-91
2022/12/12 23:31:22;;;;;;;32.80;12.07;;;;;;;;;;6262463;22;20194;-90
2022/12/12 23:34:28;;;;;;;32.43;11.57;;;;;;;;;;6261532;22;20198;-91
2022/12/12 23:37:33;;;;;;;31.23;11.30;;;;;;;;;;6264035;22;20197;-90
2022/12/12 23:40:38;;;;;;;28.60;11.47;;;;;;;;;;6262356;22;20217;-89
2022/12/12 23:43:45;;;;;;;31.90;12.07;;;;;;;;;;6262068;22;20166;-91
2022/12/12 23:46:51;;;;;;;30.33;11.40;;;;;;;;;;6260048;22;20153;-90
2022/12/12 23:49:56;;;;;;;29.53;11.27;;;;;;;;;;6261544;22;20166;-90
2022/12/12 23:53:01;;;;;;;31.00;10.90;;;;;;;;;;6260858;22;20174;-90
2022/12/12 23:56:07;;;;;;;32.57;12.90;;;;;;;;;;6261074;22;20217;-90
2022/12/12 23:59:14;;;;;;;30.87;12.30;;;;;;;;;;6261723;22;20164;-91
